sensor_id;sensor_type;location;lat;lon;timestamp;P1;durP1;ratioP1;P2;durP2;ratioP2
65469;SDS011;52067;50.710;14.492;2023-03-21T00:00:35;47.05;;;19.35;;
65469;SDS011;52067;50.710;14.492;2023-03-21T00:03:01;37.10;;;18.20;;
65469;SDS011;52067;50.710;14.492;2023-03-21T00:05:27;48.55;;;20.52;;
65469;SDS011;52067;50.710;14.492;2023-03-21T00:07:52;51.28;;;22.98;;
65469;SDS011;52067;50.710;14.492;2023-03-21T00:10:18;53.10;;;23.00;;
65469;SDS011;52067;50.710;14.492;2023-03-21T00:12:43;49.45;;;22.20;;
65469;SDS011;52067;50.710;14.492;2023-03-21T00:15:09;45.40;;;19.98;;
65469;SDS011;52067;50.710;14.492;2023-03-21T00:17:37;41.45;;;18.80;;
65469;SDS011;52067;50.710;14.492;2023-03-21T00:20:04;44.22;;;19.70;;
65469;SDS011;52067;50.710;14.492;2023-03-21T00:22:30;42.58;;;19.85;;
65469;SDS011;52067;50.710;14.492;2023-03-21T00:24:56;42.22;;;20.08;;
65469;SDS011;52067;50.710;14.492;2023-03-21T00:27:21;45.03;;;20.15;;
65469;SDS011;52067;50.710;14.492;2023-03-21T00:29:47;41.90;;;20.23;;
65469;SDS011;52067;50.710;14.492;2023-03-21T00:32:13;51.00;;;21.90;;
65469;SDS011;52067;50.710;14.492;2023-03-21T00:34:40;48.38;;;21.90;;
65469;SDS011;52067;50.710;14.492;2023-03-21T00:37:06;35.85;;;17.92;;
65469;SDS011;52067;50.710;14.492;2023-03-21T00:39:33;37.28;;;17.95;;
65469;SDS011;52067;50.710;14.492;2023-03-21T00:41:59;39.88;;;18.38;;
65469;SDS011;52067;50.710;14.492;2023-03-21T00:44:24;30.40;;;13.75;;
65469;SDS011;52067;50.710;14.492;2023-03-21T00:46:50;29.30;;;13.88;;
65469;SDS011;52067;50.710;14.492;2023-03-21T00:49:16;31.40;;;15.25;;
65469;SDS011;52067;50.710;14.492;2023-03-21T00:51:41;38.03;;;17.38;;
65469;SDS011;52067;50.710;14.492;2023-03-21T00:54:08;34.10;;;16.02;;
65469;SDS011;52067;50.710;14.492;2023-03-21T00:56:38;39.65;;;17.92;;
65469;SDS011;52067;50.710;14.492;2023-03-21T00:59:03;45.10;;;16.95;;
65469;SDS011;52067;50.710;14.492;2023-03-21T01:01:29;35.45;;;17.83;;
65469;SDS011;52067;50.710;14.492;2023-03-21T01:03:56;47.67;;;19.83;;
65469;SDS011;52067;50.710;14.492;2023-03-21T01:06:27;39.50;;;17.88;;
65469;SDS011;52067;50.710;14.492;2023-03-21T01:08:52;46.83;;;20.42;;
65469;SDS011;52067;50.710;14.492;2023-03-21T01:11:20;40.75;;;18.67;;
65469;SDS011;52067;50.710;14.492;2023-03-21T01:13:47;43.38;;;19.17;;
65469;SDS011;52067;50.710;14.492;2023-03-21T01:16:13;40.95;;;16.90;;
65469;SDS011;52067;50.710;14.492;2023-03-21T01:18:39;36.30;;;16.80;;
65469;SDS011;52067;50.710;14.492;2023-03-21T01:21:07;37.85;;;17.50;;
65469;SDS011;52067;50.710;14.492;2023-03-21T01:23:35;39.65;;;19.20;;
65469;SDS011;52067;50.710;14.492;2023-03-21T01:26:00;36.35;;;17.52;;
65469;SDS011;52067;50.710;14.492;2023-03-21T01:28:26;38.00;;;19.00;;
65469;SDS011;52067;50.710;14.492;2023-03-21T01:30:52;34.42;;;17.30;;
65469;SDS011;52067;50.710;14.492;2023-03-21T01:33:18;35.25;;;17.67;;
65469;SDS011;52067;50.710;14.492;2023-03-21T01:35:45;49.92;;;19.33;;
65469;SDS011;52067;50.710;14.492;2023-03-21T01:38:11;37.08;;;18.75;;
65469;SDS011;52067;50.710;14.492;2023-03-21T01:40:37;41.45;;;19.50;;
65469;SDS011;52067;50.710;14.492;2023-03-21T01:43:03;42.50;;;19.38;;
65469;SDS011;52067;50.710;14.492;2023-03-21T01:48:30;39.03;;;18.15;;
65469;SDS011;52067;50.710;14.492;2023-03-21T01:50:57;38.97;;;18.67;;
65469;SDS011;52067;50.710;14.492;2023-03-21T01:53:25;39.42;;;18.23;;
65469;SDS011;52067;50.710;14.492;2023-03-21T01:55:57;37.28;;;18.50;;
65469;SDS011;52067;50.710;14.492;2023-03-21T01:58:25;35.83;;;17.30;;
65469;SDS011;52067;50.710;14.492;2023-03-21T02:00:51;36.95;;;18.17;;
65469;SDS011;52067;50.710;14.492;2023-03-21T02:03:19;36.95;;;17.95;;
65469;SDS011;52067;50.710;14.492;2023-03-21T02:05:53;38.03;;;18.83;;
65469;SDS011;52067;50.710;14.492;2023-03-21T02:08:24;36.22;;;17.27;;
65469;SDS011;52067;50.710;14.492;2023-03-21T02:10:50;38.88;;;17.73;;
65469;SDS011;52067;50.710;14.492;2023-03-21T02:13:15;42.90;;;19.48;;
65469;SDS011;52067;50.710;14.492;2023-03-21T02:15:44;37.28;;;19.30;;
65469;SDS011;52067;50.710;14.492;2023-03-21T02:23:24;53.88;;;22.75;;
65469;SDS011;52067;50.710;14.492;2023-03-21T02:28:53;34.85;;;15.98;;
65469;SDS011;52067;50.710;14.492;2023-03-21T02:31:40;33.47;;;16.58;;
65469;SDS011;52067;50.710;14.492;2023-03-21T02:39:51;33.50;;;17.60;;
65469;SDS011;52067;50.710;14.492;2023-03-21T02:45:14;44.55;;;19.73;;
65469;SDS011;52067;50.710;14.492;2023-03-21T02:47:44;37.72;;;17.77;;
65469;SDS011;52067;50.710;14.492;2023-03-21T02:50:33;42.35;;;18.35;;
65469;SDS011;52067;50.710;14.492;2023-03-21T02:53:22;36.55;;;18.52;;
65469;SDS011;52067;50.710;14.492;2023-03-21T02:55:51;33.95;;;17.08;;
65469;SDS011;52067;50.710;14.492;2023-03-21T02:58:19;26.70;;;14.32;;
65469;SDS011;52067;50.710;14.492;2023-03-21T03:00:46;34.75;;;15.52;;
65469;SDS011;52067;50.710;14.492;2023-03-21T03:03:13;28.85;;;13.43;;
65469;SDS011;52067;50.710;14.492;2023-03-21T03:05:41;27.85;;;11.57;;
65469;SDS011;52067;50.710;14.492;2023-03-21T03:11:25;38.30;;;14.15;;
65469;SDS011;52067;50.710;14.492;2023-03-21T03:16:48;27.00;;;13.90;;
65469;SDS011;52067;50.710;14.492;2023-03-21T03:19:33;27.52;;;11.98;;
65469;SDS011;52067;50.710;14.492;2023-03-21T03:22:09;25.60;;;12.02;;
65469;SDS011;52067;50.710;14.492;2023-03-21T03:24:50;24.05;;;12.75;;
65469;SDS011;52067;50.710;14.492;2023-03-21T03:27:24;27.15;;;12.07;;
65469;SDS011;52067;50.710;14.492;2023-03-21T03:29:53;24.75;;;12.18;;
65469;SDS011;52067;50.710;14.492;2023-03-21T03:32:35;28.05;;;12.45;;
65469;SDS011;52067;50.710;14.492;2023-03-21T03:35:03;26.88;;;13.13;;
65469;SDS011;52067;50.710;14.492;2023-03-21T03:37:30;29.63;;;13.30;;
65469;SDS011;52067;50.710;14.492;2023-03-21T03:40:05;23.85;;;12.63;;
65469;SDS011;52067;50.710;14.492;2023-03-21T03:42:48;23.50;;;12.57;;
65469;SDS011;52067;50.710;14.492;2023-03-21T03:45:16;29.73;;;13.32;;
65469;SDS011;52067;50.710;14.492;2023-03-21T03:47:49;35.15;;;13.18;;
65469;SDS011;52067;50.710;14.492;2023-03-21T03:55:42;41.50;;;14.93;;
65469;SDS011;52067;50.710;14.492;2023-03-21T03:58:08;32.67;;;13.18;;
65469;SDS011;52067;50.710;14.492;2023-03-21T04:00:34;31.45;;;14.13;;
65469;SDS011;52067;50.710;14.492;2023-03-21T04:03:01;30.02;;;13.98;;
65469;SDS011;52067;50.710;14.492;2023-03-21T04:05:26;33.67;;;14.10;;
65469;SDS011;52067;50.710;14.492;2023-03-21T04:07:52;39.88;;;14.38;;
65469;SDS011;52067;50.710;14.492;2023-03-21T04:10:18;29.88;;;14.07;;
65469;SDS011;52067;50.710;14.492;2023-03-21T04:12:45;23.38;;;12.65;;
65469;SDS011;52067;50.710;14.492;2023-03-21T04:15:10;23.80;;;12.45;;
65469;SDS011;52067;50.710;14.492;2023-03-21T04:17:36;27.60;;;13.68;;
65469;SDS011;52067;50.710;14.492;2023-03-21T04:20:03;24.63;;;13.23;;
65469;SDS011;52067;50.710;14.492;2023-03-21T04:22:30;29.10;;;13.88;;
65469;SDS011;52067;50.710;14.492;2023-03-21T04:24:57;25.77;;;13.15;;
65469;SDS011;52067;50.710;14.492;2023-03-21T04:27:22;27.33;;;13.48;;
65469;SDS011;52067;50.710;14.492;2023-03-21T04:29:48;32.55;;;16.20;;
65469;SDS011;52067;50.710;14.492;2023-03-21T04:32:13;26.83;;;14.63;;
65469;SDS011;52067;50.710;14.492;2023-03-21T04:34:43;33.60;;;15.10;;
65469;SDS011;52067;50.710;14.492;2023-03-21T04:37:17;30.73;;;16.17;;
65469;SDS011;52067;50.710;14.492;2023-03-21T04:39:43;31.33;;;15.23;;
65469;SDS011;52067;50.710;14.492;2023-03-21T04:42:10;28.83;;;15.02;;
65469;SDS011;52067;50.710;14.492;2023-03-21T04:44:38;29.17;;;15.00;;
65469;SDS011;52067;50.710;14.492;2023-03-21T04:47:04;28.88;;;13.70;;
65469;SDS011;52067;50.710;14.492;2023-03-21T04:49:29;27.50;;;13.10;;
65469;SDS011;52067;50.710;14.492;2023-03-21T04:51:55;29.50;;;14.57;;
65469;SDS011;52067;50.710;14.492;2023-03-21T04:54:20;28.10;;;15.18;;
65469;SDS011;52067;50.710;14.492;2023-03-21T04:56:46;29.13;;;12.75;;
65469;SDS011;52067;50.710;14.492;2023-03-21T04:59:12;25.48;;;13.50;;
65469;SDS011;52067;50.710;14.492;2023-03-21T05:01:39;29.05;;;14.20;;
65469;SDS011;52067;50.710;14.492;2023-03-21T05:04:07;26.08;;;12.98;;
65469;SDS011;52067;50.710;14.492;2023-03-21T05:06:33;25.60;;;13.25;;
65469;SDS011;52067;50.710;14.492;2023-03-21T05:08:59;21.77;;;11.65;;
65469;SDS011;52067;50.710;14.492;2023-03-21T05:11:29;26.38;;;14.27;;
65469;SDS011;52067;50.710;14.492;2023-03-21T05:13:59;33.10;;;15.50;;
65469;SDS011;52067;50.710;14.492;2023-03-21T05:16:25;24.08;;;13.85;;
65469;SDS011;52067;50.710;14.492;2023-03-21T05:18:54;22.98;;;13.35;;
65469;SDS011;52067;50.710;14.492;2023-03-21T05:21:21;24.42;;;14.07;;
65469;SDS011;52067;50.710;14.492;2023-03-21T05:23:46;25.23;;;13.73;;
65469;SDS011;52067;50.710;14.492;2023-03-21T05:26:18;28.40;;;14.88;;
65469;SDS011;52067;50.710;14.492;2023-03-21T05:28:45;27.92;;;14.13;;
65469;SDS011;52067;50.710;14.492;2023-03-21T05:31:12;24.70;;;13.85;;
65469;SDS011;52067;50.710;14.492;2023-03-21T05:33:40;26.83;;;15.27;;
65469;SDS011;52067;50.710;14.492;2023-03-21T05:36:09;27.50;;;15.00;;
65469;SDS011;52067;50.710;14.492;2023-03-21T05:38:35;36.13;;;23.13;;
65469;SDS011;52067;50.710;14.492;2023-03-21T05:41:01;30.05;;;15.07;;
65469;SDS011;52067;50.710;14.492;2023-03-21T05:43:27;34.47;;;17.27;;
65469;SDS011;52067;50.710;14.492;2023-03-21T05:45:52;37.00;;;19.00;;
65469;SDS011;52067;50.710;14.492;2023-03-21T05:48:18;32.33;;;16.10;;
65469;SDS011;52067;50.710;14.492;2023-03-21T05:50:44;24.83;;;14.60;;
65469;SDS011;52067;50.710;14.492;2023-03-21T05:53:09;25.83;;;13.70;;
65469;SDS011;52067;50.710;14.492;2023-03-21T05:55:35;26.67;;;14.68;;
65469;SDS011;52067;50.710;14.492;2023-03-21T05:58:01;25.88;;;14.32;;
65469;SDS011;52067;50.710;14.492;2023-03-21T06:00:27;28.17;;;14.40;;
65469;SDS011;52067;50.710;14.492;2023-03-21T06:02:52;25.05;;;14.32;;
65469;SDS011;52067;50.710;14.492;2023-03-21T06:05:18;24.73;;;13.23;;
65469;SDS011;52067;50.710;14.492;2023-03-21T06:07:44;30.70;;;14.88;;
65469;SDS011;52067;50.710;14.492;2023-03-21T06:10:10;28.77;;;15.85;;
65469;SDS011;52067;50.710;14.492;2023-03-21T06:12:35;24.52;;;13.23;;
65469;SDS011;52067;50.710;14.492;2023-03-21T06:15:01;24.67;;;12.35;;
65469;SDS011;52067;50.710;14.492;2023-03-21T06:17:29;22.27;;;11.77;;
65469;SDS011;52067;50.710;14.492;2023-03-21T06:19:55;22.63;;;11.90;;
65469;SDS011;52067;50.710;14.492;2023-03-21T06:22:20;26.33;;;11.88;;
65469;SDS011;52067;50.710;14.492;2023-03-21T06:24:45;19.85;;;11.02;;
65469;SDS011;52067;50.710;14.492;2023-03-21T06:27:11;23.13;;;11.60;;
65469;SDS011;52067;50.710;14.492;2023-03-21T06:29:36;17.77;;;10.07;;
65469;SDS011;52067;50.710;14.492;2023-03-21T06:32:02;19.38;;;10.55;;
65469;SDS011;52067;50.710;14.492;2023-03-21T06:34:28;16.77;;;9.65;;
65469;SDS011;52067;50.710;14.492;2023-03-21T06:36:53;15.52;;;9.00;;
65469;SDS011;52067;50.710;14.492;2023-03-21T06:39:19;19.35;;;10.15;;
65469;SDS011;52067;50.710;14.492;2023-03-21T06:41:45;19.02;;;9.38;;
65469;SDS011;52067;50.710;14.492;2023-03-21T06:44:10;17.00;;;9.60;;
65469;SDS011;52067;50.710;14.492;2023-03-21T06:46:36;19.38;;;10.00;;
65469;SDS011;52067;50.710;14.492;2023-03-21T06:49:02;16.42;;;9.00;;
65469;SDS011;52067;50.710;14.492;2023-03-21T06:51:27;21.25;;;9.13;;
65469;SDS011;52067;50.710;14.492;2023-03-21T06:53:53;20.67;;;9.23;;
65469;SDS011;52067;50.710;14.492;2023-03-21T06:56:18;16.33;;;8.02;;
65469;SDS011;52067;50.710;14.492;2023-03-21T06:58:44;16.80;;;9.05;;
65469;SDS011;52067;50.710;14.492;2023-03-21T07:01:10;15.85;;;8.40;;
65469;SDS011;52067;50.710;14.492;2023-03-21T07:03:36;13.55;;;7.45;;
65469;SDS011;52067;50.710;14.492;2023-03-21T07:06:05;15.75;;;8.25;;
65469;SDS011;52067;50.710;14.492;2023-03-21T07:08:35;15.25;;;8.13;;
65469;SDS011;52067;50.710;14.492;2023-03-21T07:11:02;14.55;;;8.38;;
65469;SDS011;52067;50.710;14.492;2023-03-21T07:13:29;14.75;;;7.93;;
65469;SDS011;52067;50.710;14.492;2023-03-21T07:15:55;10.52;;;7.35;;
65469;SDS011;52067;50.710;14.492;2023-03-21T07:18:20;12.07;;;7.20;;
65469;SDS011;52067;50.710;14.492;2023-03-21T07:20:46;11.82;;;7.03;;
65469;SDS011;52067;50.710;14.492;2023-03-21T07:23:19;12.55;;;7.38;;
65469;SDS011;52067;50.710;14.492;2023-03-21T07:25:46;12.88;;;7.50;;
65469;SDS011;52067;50.710;14.492;2023-03-21T07:28:13;12.20;;;6.78;;
65469;SDS011;52067;50.710;14.492;2023-03-21T07:30:38;15.32;;;7.25;;
65469;SDS011;52067;50.710;14.492;2023-03-21T07:33:04;27.02;;;12.02;;
65469;SDS011;52067;50.710;14.492;2023-03-21T07:35:31;17.52;;;7.43;;
65469;SDS011;52067;50.710;14.492;2023-03-21T07:37:56;15.10;;;7.28;;
65469;SDS011;52067;50.710;14.492;2023-03-21T07:40:21;17.13;;;7.30;;
65469;SDS011;52067;50.710;14.492;2023-03-21T07:42:47;13.65;;;6.68;;
65469;SDS011;52067;50.710;14.492;2023-03-21T07:45:14;13.63;;;7.28;;
65469;SDS011;52067;50.710;14.492;2023-03-21T07:47:44;12.77;;;7.20;;
65469;SDS011;52067;50.710;14.492;2023-03-21T07:50:10;15.55;;;8.00;;
65469;SDS011;52067;50.710;14.492;2023-03-21T07:52:36;13.27;;;7.07;;
65469;SDS011;52067;50.710;14.492;2023-03-21T07:55:01;12.63;;;6.82;;
65469;SDS011;52067;50.710;14.492;2023-03-21T07:57:27;12.50;;;6.57;;
65469;SDS011;52067;50.710;14.492;2023-03-21T07:59:52;14.38;;;7.30;;
65469;SDS011;52067;50.710;14.492;2023-03-21T08:02:17;18.10;;;7.43;;
65469;SDS011;52067;50.710;14.492;2023-03-21T08:04:43;17.38;;;7.22;;
65469;SDS011;52067;50.710;14.492;2023-03-21T08:07:09;15.63;;;7.22;;
65469;SDS011;52067;50.710;14.492;2023-03-21T08:09:35;19.60;;;8.20;;
65469;SDS011;52067;50.710;14.492;2023-03-21T08:12:01;13.90;;;7.15;;
65469;SDS011;52067;50.710;14.492;2023-03-21T08:14:27;15.65;;;7.57;;
65469;SDS011;52067;50.710;14.492;2023-03-21T08:16:52;20.85;;;7.45;;
65469;SDS011;52067;50.710;14.492;2023-03-21T08:19:18;11.27;;;6.30;;
65469;SDS011;52067;50.710;14.492;2023-03-21T08:21:45;12.25;;;6.97;;
65469;SDS011;52067;50.710;14.492;2023-03-21T08:24:12;12.13;;;6.95;;
65469;SDS011;52067;50.710;14.492;2023-03-21T08:26:37;13.05;;;6.13;;
65469;SDS011;52067;50.710;14.492;2023-03-21T08:29:02;13.95;;;7.00;;
65469;SDS011;52067;50.710;14.492;2023-03-21T08:31:28;11.90;;;6.75;;
65469;SDS011;52067;50.710;14.492;2023-03-21T08:33:53;14.13;;;7.20;;
65469;SDS011;52067;50.710;14.492;2023-03-21T08:36:20;15.52;;;6.53;;
65469;SDS011;52067;50.710;14.492;2023-03-21T08:38:46;12.65;;;6.25;;
65469;SDS011;52067;50.710;14.492;2023-03-21T08:41:13;11.77;;;7.00;;
65469;SDS011;52067;50.710;14.492;2023-03-21T08:43:39;13.32;;;6.68;;
65469;SDS011;52067;50.710;14.492;2023-03-21T08:46:04;15.05;;;6.65;;
65469;SDS011;52067;50.710;14.492;2023-03-21T08:48:30;18.48;;;7.63;;
65469;SDS011;52067;50.710;14.492;2023-03-21T08:50:56;12.45;;;6.72;;
65469;SDS011;52067;50.710;14.492;2023-03-21T08:53:24;14.95;;;7.40;;
65469;SDS011;52067;50.710;14.492;2023-03-21T08:55:49;14.32;;;6.88;;
65469;SDS011;52067;50.710;14.492;2023-03-21T08:58:15;13.40;;;6.90;;
65469;SDS011;52067;50.710;14.492;2023-03-21T09:00:41;11.48;;;7.13;;
65469;SDS011;52067;50.710;14.492;2023-03-21T09:03:07;13.60;;;6.88;;
65469;SDS011;52067;50.710;14.492;2023-03-21T09:05:32;11.02;;;5.88;;
65469;SDS011;52067;50.710;14.492;2023-03-21T09:07:58;11.00;;;6.43;;
65469;SDS011;52067;50.710;14.492;2023-03-21T09:10:25;13.10;;;5.93;;
65469;SDS011;52067;50.710;14.492;2023-03-21T09:12:52;10.43;;;6.28;;
65469;SDS011;52067;50.710;14.492;2023-03-21T09:15:19;13.15;;;5.72;;
65469;SDS011;52067;50.710;14.492;2023-03-21T09:17:45;8.88;;;4.95;;
65469;SDS011;52067;50.710;14.492;2023-03-21T09:20:16;9.88;;;5.03;;
65469;SDS011;52067;50.710;14.492;2023-03-21T09:22:48;8.93;;;5.40;;
65469;SDS011;52067;50.710;14.492;2023-03-21T09:25:15;10.65;;;6.32;;
65469;SDS011;52067;50.710;14.492;2023-03-21T09:27:41;9.73;;;5.78;;
65469;SDS011;52067;50.710;14.492;2023-03-21T09:30:13;9.63;;;5.85;;
65469;SDS011;52067;50.710;14.492;2023-03-21T09:32:41;10.23;;;5.82;;
65469;SDS011;52067;50.710;14.492;2023-03-21T09:35:06;9.27;;;5.82;;
65469;SDS011;52067;50.710;14.492;2023-03-21T09:37:34;9.45;;;5.45;;
65469;SDS011;52067;50.710;14.492;2023-03-21T09:40:02;12.60;;;5.80;;
65469;SDS011;52067;50.710;14.492;2023-03-21T09:42:40;15.80;;;5.82;;
65469;SDS011;52067;50.710;14.492;2023-03-21T09:45:23;10.27;;;6.18;;
65469;SDS011;52067;50.710;14.492;2023-03-21T09:47:58;9.45;;;5.50;;
65469;SDS011;52067;50.710;14.492;2023-03-21T09:50:29;11.20;;;6.25;;
65469;SDS011;52067;50.710;14.492;2023-03-21T09:52:57;13.02;;;6.68;;
65469;SDS011;52067;50.710;14.492;2023-03-21T09:55:29;9.10;;;5.43;;
65469;SDS011;52067;50.710;14.492;2023-03-21T09:58:22;10.45;;;5.75;;
65469;SDS011;52067;50.710;14.492;2023-03-21T10:00:52;10.20;;;5.50;;
65469;SDS011;52067;50.710;14.492;2023-03-21T10:03:24;11.68;;;6.28;;
65469;SDS011;52067;50.710;14.492;2023-03-21T10:05:55;9.40;;;5.25;;
65469;SDS011;52067;50.710;14.492;2023-03-21T10:08:25;9.63;;;5.32;;
65469;SDS011;52067;50.710;14.492;2023-03-21T10:10:56;12.27;;;5.70;;
65469;SDS011;52067;50.710;14.492;2023-03-21T10:16:13;10.52;;;6.00;;
65469;SDS011;52067;50.710;14.492;2023-03-21T10:18:42;8.80;;;4.78;;
65469;SDS011;52067;50.710;14.492;2023-03-21T10:21:14;10.80;;;5.97;;
65469;SDS011;52067;50.710;14.492;2023-03-21T10:23:45;8.07;;;5.00;;
65469;SDS011;52067;50.710;14.492;2023-03-21T10:26:10;9.95;;;5.30;;
65469;SDS011;52067;50.710;14.492;2023-03-21T10:28:37;8.68;;;4.82;;
65469;SDS011;52067;50.710;14.492;2023-03-21T10:31:07;8.63;;;5.20;;
65469;SDS011;52067;50.710;14.492;2023-03-21T10:33:36;8.40;;;4.68;;
65469;SDS011;52067;50.710;14.492;2023-03-21T10:36:36;7.53;;;5.03;;
65469;SDS011;52067;50.710;14.492;2023-03-21T10:39:00;8.93;;;5.85;;
65469;SDS011;52067;50.710;14.492;2023-03-21T10:41:29;10.65;;;6.82;;
65469;SDS011;52067;50.710;14.492;2023-03-21T10:44:14;8.20;;;5.30;;
65469;SDS011;52067;50.710;14.492;2023-03-21T10:46:48;7.43;;;4.72;;
65469;SDS011;52067;50.710;14.492;2023-03-21T10:49:16;7.53;;;4.32;;
65469;SDS011;52067;50.710;14.492;2023-03-21T10:51:42;7.60;;;4.50;;
65469;SDS011;52067;50.710;14.492;2023-03-21T10:54:13;10.05;;;5.07;;
65469;SDS011;52067;50.710;14.492;2023-03-21T10:57:01;7.57;;;4.60;;
65469;SDS011;52067;50.710;14.492;2023-03-21T10:59:40;11.77;;;5.28;;
65469;SDS011;52067;50.710;14.492;2023-03-21T11:02:17;7.15;;;4.28;;
65469;SDS011;52067;50.710;14.492;2023-03-21T11:04:46;7.00;;;4.40;;
65469;SDS011;52067;50.710;14.492;2023-03-21T11:07:13;7.25;;;3.97;;
65469;SDS011;52067;50.710;14.492;2023-03-21T11:09:44;8.90;;;4.70;;
65469;SDS011;52067;50.710;14.492;2023-03-21T11:12:36;6.97;;;4.57;;
65469;SDS011;52067;50.710;14.492;2023-03-21T11:15:14;8.00;;;4.07;;
65469;SDS011;52067;50.710;14.492;2023-03-21T11:17:51;8.13;;;4.50;;
65469;SDS011;52067;50.710;14.492;2023-03-21T11:20:17;10.98;;;5.50;;
65469;SDS011;52067;50.710;14.492;2023-03-21T11:22:43;9.93;;;5.45;;
65469;SDS011;52067;50.710;14.492;2023-03-21T11:28:04;7.63;;;5.43;;
65469;SDS011;52067;50.710;14.492;2023-03-21T11:30:32;7.40;;;4.10;;
65469;SDS011;52067;50.710;14.492;2023-03-21T11:33:00;6.68;;;4.10;;
65469;SDS011;52067;50.710;14.492;2023-03-21T11:35:36;7.00;;;3.72;;
65469;SDS011;52067;50.710;14.492;2023-03-21T11:38:03;8.88;;;4.78;;
65469;SDS011;52067;50.710;14.492;2023-03-21T11:42:58;10.93;;;6.25;;
65469;SDS011;52067;50.710;14.492;2023-03-21T11:48:28;6.70;;;4.53;;
65469;SDS011;52067;50.710;14.492;2023-03-21T11:51:02;5.65;;;3.80;;
65469;SDS011;52067;50.710;14.492;2023-03-21T11:53:42;6.45;;;4.82;;
65469;SDS011;52067;50.710;14.492;2023-03-21T12:06:55;10.98;;;4.75;;
65469;SDS011;52067;50.710;14.492;2023-03-21T12:14:37;6.38;;;4.53;;
65469;SDS011;52067;50.710;14.492;2023-03-21T12:34:13;6.57;;;3.38;;
65469;SDS011;52067;50.710;14.492;2023-03-21T12:39:50;6.97;;;3.70;;
65469;SDS011;52067;50.710;14.492;2023-03-21T12:47:47;6.10;;;3.53;;
65469;SDS011;52067;50.710;14.492;2023-03-21T12:50:22;5.50;;;3.60;;
65469;SDS011;52067;50.710;14.492;2023-03-21T12:52:54;4.18;;;3.08;;
65469;SDS011;52067;50.710;14.492;2023-03-21T12:55:24;6.80;;;3.40;;
65469;SDS011;52067;50.710;14.492;2023-03-21T12:58:08;5.15;;;2.97;;
65469;SDS011;52067;50.710;14.492;2023-03-21T13:00:42;7.03;;;3.30;;
65469;SDS011;52067;50.710;14.492;2023-03-21T13:06:05;7.32;;;3.53;;
65469;SDS011;52067;50.710;14.492;2023-03-21T13:08:36;6.20;;;3.53;;
65469;SDS011;52067;50.710;14.492;2023-03-21T13:11:04;4.75;;;3.28;;
65469;SDS011;52067;50.710;14.492;2023-03-21T13:16:01;5.00;;;3.45;;
65469;SDS011;52067;50.710;14.492;2023-03-21T13:24:03;7.47;;;3.33;;
65469;SDS011;52067;50.710;14.492;2023-03-21T13:26:56;4.18;;;2.70;;
65469;SDS011;52067;50.710;14.492;2023-03-21T13:29:30;5.82;;;3.20;;
65469;SDS011;52067;50.710;14.492;2023-03-21T13:32:04;5.47;;;3.13;;
65469;SDS011;52067;50.710;14.492;2023-03-21T13:34:33;4.07;;;2.90;;
65469;SDS011;52067;50.710;14.492;2023-03-21T13:37:02;4.95;;;2.92;;
65469;SDS011;52067;50.710;14.492;2023-03-21T13:39:27;4.25;;;2.80;;
65469;SDS011;52067;50.710;14.492;2023-03-21T13:41:53;6.07;;;3.00;;
65469;SDS011;52067;50.710;14.492;2023-03-21T13:44:40;6.22;;;2.92;;
65469;SDS011;52067;50.710;14.492;2023-03-21T13:55:45;5.32;;;3.08;;
65469;SDS011;52067;50.710;14.492;2023-03-21T14:01:18;3.70;;;2.55;;
65469;SDS011;52067;50.710;14.492;2023-03-21T14:03:45;3.92;;;2.30;;
65469;SDS011;52067;50.710;14.492;2023-03-21T14:06:11;9.15;;;2.70;;
65469;SDS011;52067;50.710;14.492;2023-03-21T14:08:40;4.03;;;2.60;;
65469;SDS011;52067;50.710;14.492;2023-03-21T14:11:10;4.72;;;2.70;;
65469;SDS011;52067;50.710;14.492;2023-03-21T14:13:42;4.90;;;2.70;;
65469;SDS011;52067;50.710;14.492;2023-03-21T14:16:09;4.07;;;2.60;;
65469;SDS011;52067;50.710;14.492;2023-03-21T14:19:00;3.95;;;2.53;;
65469;SDS011;52067;50.710;14.492;2023-03-21T14:21:27;4.50;;;2.80;;
65469;SDS011;52067;50.710;14.492;2023-03-21T14:23:57;3.97;;;2.63;;
65469;SDS011;52067;50.710;14.492;2023-03-21T14:26:39;5.05;;;2.83;;
65469;SDS011;52067;50.710;14.492;2023-03-21T14:29:07;5.50;;;2.88;;
65469;SDS011;52067;50.710;14.492;2023-03-21T14:31:38;3.88;;;2.50;;
65469;SDS011;52067;50.710;14.492;2023-03-21T14:34:04;5.20;;;3.30;;
65469;SDS011;52067;50.710;14.492;2023-03-21T14:36:31;4.68;;;3.15;;
65469;SDS011;52067;50.710;14.492;2023-03-21T14:41:45;5.22;;;3.22;;
65469;SDS011;52067;50.710;14.492;2023-03-21T14:44:26;4.70;;;3.20;;
65469;SDS011;52067;50.710;14.492;2023-03-21T14:47:39;6.53;;;3.17;;
65469;SDS011;52067;50.710;14.492;2023-03-21T14:49:47;6.05;;;3.53;;
65469;SDS011;52067;50.710;14.492;2023-03-21T14:52:30;7.80;;;3.75;;
65469;SDS011;52067;50.710;14.492;2023-03-21T14:54:58;4.50;;;3.70;;
65469;SDS011;52067;50.710;14.492;2023-03-21T14:57:29;4.72;;;3.53;;
65469;SDS011;52067;50.710;14.492;2023-03-21T14:59:58;10.32;;;4.63;;
65469;SDS011;52067;50.710;14.492;2023-03-21T15:02:27;5.85;;;4.03;;
65469;SDS011;52067;50.710;14.492;2023-03-21T15:04:56;6.22;;;3.78;;
65469;SDS011;52067;50.710;14.492;2023-03-21T15:07:32;7.55;;;4.00;;
65469;SDS011;52067;50.710;14.492;2023-03-21T15:09:59;6.63;;;3.88;;
65469;SDS011;52067;50.710;14.492;2023-03-21T15:12:30;6.03;;;4.10;;
65469;SDS011;52067;50.710;14.492;2023-03-21T15:14:57;5.40;;;4.05;;
65469;SDS011;52067;50.710;14.492;2023-03-21T15:17:23;7.35;;;4.00;;
65469;SDS011;52067;50.710;14.492;2023-03-21T15:19:50;6.75;;;3.63;;
65469;SDS011;52067;50.710;14.492;2023-03-21T15:22:20;5.65;;;3.90;;
65469;SDS011;52067;50.710;14.492;2023-03-21T15:24:48;7.18;;;4.10;;
65469;SDS011;52067;50.710;14.492;2023-03-21T15:27:18;6.53;;;4.10;;
65469;SDS011;52067;50.710;14.492;2023-03-21T15:29:47;6.03;;;4.35;;
65469;SDS011;52067;50.710;14.492;2023-03-21T15:32:18;7.20;;;4.00;;
65469;SDS011;52067;50.710;14.492;2023-03-21T15:34:47;6.15;;;5.00;;
65469;SDS011;52067;50.710;14.492;2023-03-21T15:37:24;7.32;;;4.90;;
65469;SDS011;52067;50.710;14.492;2023-03-21T15:39:52;7.05;;;4.97;;
65469;SDS011;52067;50.710;14.492;2023-03-21T15:44:51;7.30;;;5.60;;
65469;SDS011;52067;50.710;14.492;2023-03-21T15:47:34;5.80;;;4.70;;
65469;SDS011;52067;50.710;14.492;2023-03-21T15:52:47;6.78;;;4.90;;
65469;SDS011;52067;50.710;14.492;2023-03-21T15:55:18;6.75;;;4.78;;
65469;SDS011;52067;50.710;14.492;2023-03-21T15:57:50;6.50;;;4.78;;
65469;SDS011;52067;50.710;14.492;2023-03-21T16:02:55;6.75;;;4.93;;
65469;SDS011;52067;50.710;14.492;2023-03-21T16:05:27;7.78;;;5.43;;
65469;SDS011;52067;50.710;14.492;2023-03-21T16:07:57;7.20;;;5.78;;
65469;SDS011;52067;50.710;14.492;2023-03-21T16:10:45;7.25;;;5.60;;
65469;SDS011;52067;50.710;14.492;2023-03-21T16:13:13;7.63;;;5.18;;
65469;SDS011;52067;50.710;14.492;2023-03-21T16:15:38;9.45;;;6.72;;
65469;SDS011;52067;50.710;14.492;2023-03-21T16:18:04;8.93;;;6.85;;
65469;SDS011;52067;50.710;14.492;2023-03-21T16:20:33;8.60;;;6.55;;
65469;SDS011;52067;50.710;14.492;2023-03-21T16:23:12;9.65;;;6.80;;
65469;SDS011;52067;50.710;14.492;2023-03-21T16:25:39;8.63;;;7.10;;
65469;SDS011;52067;50.710;14.492;2023-03-21T16:28:11;9.85;;;7.43;;